createdAt,value
2023-04-14T00:01:39.795Z,100.00
2023-04-14T00:02:53.673Z,100.00
2023-04-14T00:04:03.916Z,100.00
2023-04-14T00:05:10.055Z,100.00
2023-04-14T00:06:38.219Z,100.00
2023-04-14T00:07:55.127Z,100.00
2023-04-14T00:09:02.480Z,100.00
2023-04-14T00:10:29.207Z,100.00
2023-04-14T00:11:34.401Z,100.00
2023-04-14T00:12:42.232Z,100.00
2023-04-14T00:15:17.881Z,100.00
2023-04-14T00:16:24.000Z,100.00
2023-04-14T00:17:35.642Z,100.00
2023-04-14T00:18:43.027Z,100.00
2023-04-14T00:19:48.141Z,100.00
2023-04-14T00:20:56.326Z,100.00
2023-04-14T00:22:08.631Z,100.00
2023-04-14T00:23:17.474Z,100.00
2023-04-14T00:24:30.398Z,100.00
2023-04-14T00:25:36.420Z,100.00
2023-04-14T00:26:41.668Z,100.00
2023-04-14T00:27:47.484Z,100.00
2023-04-14T00:29:00.222Z,100.00
2023-04-14T00:30:08.703Z,100.00
2023-04-14T00:31:14.206Z,100.00
2023-04-14T00:32:24.334Z,100.00
2023-04-14T00:33:41.113Z,100.00
2023-04-14T00:34:49.872Z,100.00
2023-04-14T00:36:10.104Z,100.00
2023-04-14T00:37:18.622Z,100.00
2023-04-14T00:38:25.792Z,100.00
2023-04-14T00:39:33.651Z,100.00
2023-04-14T00:40:46.485Z,100.00
2023-04-14T00:41:56.072Z,100.00
2023-04-14T00:43:04.019Z,100.00
2023-04-14T00:44:18.806Z,100.00
2023-04-14T00:45:27.642Z,100.00
2023-04-14T00:46:34.207Z,100.00
2023-04-14T00:47:50.543Z,100.00
2023-04-14T00:48:59.378Z,100.00
2023-04-14T00:50:28.913Z,100.00
2023-04-14T00:51:35.969Z,100.00
2023-04-14T00:52:46.223Z,100.00
2023-04-14T00:53:52.090Z,100.00
2023-04-14T00:54:55.867Z,100.00
2023-04-14T00:56:01.305Z,100.00
2023-04-14T00:57:12.850Z,100.00
2023-04-14T00:58:16.483Z,100.00
2023-04-14T00:59:20.492Z,100.00
2023-04-14T01:00:24.228Z,100.00
2023-04-14T01:01:33.767Z,100.00
2023-04-14T01:02:37.917Z,100.00
2023-04-14T01:03:42.040Z,100.00
2023-04-14T01:04:54.198Z,100.00
2023-04-14T01:06:22.160Z,100.00
2023-04-14T01:07:30.437Z,100.00
2023-04-14T01:08:35.039Z,100.00
2023-04-14T01:09:46.252Z,100.00
2023-04-14T01:11:08.787Z,100.00
2023-04-14T01:12:55.029Z,100.00
2023-04-14T01:14:28.451Z,100.00
2023-04-14T01:15:59.873Z,100.00
2023-04-14T01:17:33.552Z,100.00
2023-04-14T01:19:18.301Z,100.00
2023-04-14T01:20:43.820Z,100.00
2023-04-14T01:22:19.219Z,100.00
2023-04-14T01:23:40.675Z,100.00
2023-04-14T01:25:10.167Z,100.00
2023-04-14T01:26:35.663Z,100.00
2023-04-14T01:28:25.298Z,100.00
2023-04-14T01:30:37.807Z,100.00
2023-04-14T01:32:10.758Z,100.00
2023-04-14T01:33:22.663Z,100.00
2023-04-14T01:35:15.115Z,100.00
2023-04-14T01:36:32.841Z,100.00
2023-04-14T01:37:50.600Z,100.00
2023-04-14T01:38:56.755Z,100.00
2023-04-14T01:40:19.607Z,100.00
2023-04-14T01:41:30.374Z,100.00
2023-04-14T01:42:50.082Z,100.00
2023-04-14T01:44:27.197Z,100.00
2023-04-14T01:45:54.352Z,100.00
2023-04-14T01:47:16.339Z,100.00
2023-04-14T01:48:21.545Z,100.00
2023-04-14T01:49:31.295Z,100.00
2023-04-14T01:50:48.171Z,100.00
2023-04-14T01:51:59.344Z,100.00
2023-04-14T01:53:27.677Z,100.00
2023-04-14T01:56:05.961Z,100.00
2023-04-14T01:57:23.100Z,100.00
2023-04-14T01:58:36.114Z,100.00
2023-04-14T01:59:45.098Z,100.00
2023-04-14T02:00:53.085Z,100.00
2023-04-14T02:02:14.402Z,100.00
2023-04-14T02:03:23.623Z,100.00
2023-04-14T02:04:37.159Z,100.00
2023-04-14T02:05:44.327Z,100.00
2023-04-14T02:06:52.937Z,100.00
2023-04-14T02:08:11.267Z,100.00
2023-04-14T02:09:24.779Z,100.00
2023-04-14T02:10:32.676Z,100.00
2023-04-14T02:11:38.564Z,100.00
2023-04-14T02:12:46.479Z,100.00
2023-04-14T02:13:57.362Z,100.00
2023-04-14T02:15:03.029Z,100.00
2023-04-14T02:16:21.872Z,100.00
2023-04-14T02:17:34.886Z,100.00
2023-04-14T02:18:43.096Z,100.00
2023-04-14T02:19:50.585Z,100.00
2023-04-14T02:21:00.141Z,100.00
2023-04-14T02:22:14.538Z,100.00
2023-04-14T02:23:29.766Z,100.00
2023-04-14T02:24:45.906Z,100.00
2023-04-14T02:26:12.431Z,100.00
2023-04-14T02:27:37.012Z,100.00
2023-04-14T02:29:02.953Z,100.00
2023-04-14T02:32:11.878Z,100.00
2023-04-14T02:33:22.967Z,100.00
2023-04-14T02:34:37.915Z,100.00
2023-04-14T02:36:15.752Z,100.00
2023-04-14T02:37:38.265Z,100.00
2023-04-14T02:39:14.981Z,100.00
2023-04-14T02:40:32.961Z,100.00
2023-04-14T02:41:44.055Z,100.00
2023-04-14T02:43:03.531Z,100.00
2023-04-14T02:44:33.028Z,100.00
2023-04-14T02:45:45.979Z,100.00
2023-04-14T02:47:05.182Z,100.00
2023-04-14T02:48:18.904Z,100.00
2023-04-14T02:49:24.992Z,100.00
2023-04-14T02:50:33.541Z,100.00
2023-04-14T02:51:42.799Z,100.00
2023-04-14T02:52:54.290Z,100.00
2023-04-14T02:54:29.217Z,100.00
2023-04-14T02:55:39.864Z,100.00
2023-04-14T02:56:52.278Z,100.00
2023-04-14T02:58:00.473Z,100.00
2023-04-14T02:59:09.207Z,100.00
2023-04-14T03:00:14.977Z,100.00
2023-04-14T03:01:20.527Z,100.00
2023-04-14T03:02:25.685Z,100.00
2023-04-14T03:03:31.031Z,100.00
2023-04-14T03:04:38.715Z,100.00
2023-04-14T03:05:45.376Z,100.00
2023-04-14T03:06:50.247Z,100.00
2023-04-14T03:07:55.484Z,100.00
2023-04-14T03:09:01.480Z,100.00
2023-04-14T03:10:10.701Z,100.00
2023-04-14T03:11:18.174Z,100.00
2023-04-14T03:12:26.895Z,100.00
2023-04-14T03:13:41.547Z,100.00
2023-04-14T03:14:52.104Z,100.00
2023-04-14T03:16:02.706Z,100.00
2023-04-14T03:17:24.294Z,100.00
2023-04-14T03:18:31.398Z,100.00
2023-04-14T03:19:43.612Z,100.00
2023-04-14T03:20:54.814Z,100.00
2023-04-14T03:22:04.227Z,100.00
2023-04-14T03:23:20.346Z,100.00
2023-04-14T03:24:40.520Z,100.00
2023-04-14T03:25:50.142Z,100.00
2023-04-14T03:27:25.027Z,100.00
2023-04-14T03:28:38.188Z,100.00
2023-04-14T03:29:55.527Z,100.00
2023-04-14T03:31:05.820Z,100.00
2023-04-14T03:32:31.769Z,100.00
2023-04-14T03:33:39.239Z,100.00
2023-04-14T03:34:58.605Z,100.00
2023-04-14T03:36:08.042Z,100.00
2023-04-14T03:37:19.081Z,100.00
2023-04-14T03:38:31.258Z,100.00
2023-04-14T03:39:39.498Z,100.00
2023-04-14T03:40:53.414Z,100.00
2023-04-14T03:42:05.266Z,100.00
2023-04-14T03:43:13.569Z,100.00
2023-04-14T03:44:25.971Z,100.00
2023-04-14T03:45:33.697Z,100.00
2023-04-14T03:47:04.305Z,100.00
2023-04-14T03:48:19.464Z,100.00
2023-04-14T03:49:29.483Z,100.00
2023-04-14T03:50:46.725Z,100.00
2023-04-14T03:51:54.834Z,100.00
2023-04-14T03:53:01.449Z,100.00
2023-04-14T03:54:18.567Z,100.00
2023-04-14T03:55:24.786Z,100.00
2023-04-14T03:56:32.024Z,100.00
2023-04-14T03:57:44.484Z,100.00
2023-04-14T03:58:58.821Z,100.00
2023-04-14T04:00:18.056Z,100.00
2023-04-14T04:01:27.042Z,100.00
2023-04-14T04:02:36.888Z,100.00
2023-04-14T04:03:46.968Z,100.00
2023-04-14T04:04:51.675Z,100.00
2023-04-14T04:05:59.390Z,100.00
2023-04-14T04:07:36.074Z,100.00
2023-04-14T04:08:41.749Z,100.00
2023-04-14T04:09:53.442Z,100.00
2023-04-14T04:11:02.216Z,100.00
2023-04-14T04:12:23.148Z,100.00
2023-04-14T04:13:36.850Z,100.00
2023-04-14T04:14:41.651Z,100.00
2023-04-14T04:15:58.902Z,100.00
2023-04-14T04:17:25.038Z,100.00
2023-04-14T04:18:35.289Z,100.00
2023-04-14T04:19:47.208Z,100.00
2023-04-14T04:20:55.429Z,100.00
2023-04-14T04:22:06.483Z,100.00
2023-04-14T04:23:20.932Z,100.00
2023-04-14T04:24:33.506Z,100.00
2023-04-14T04:25:54.719Z,100.00
2023-04-14T04:27:02.889Z,100.00
2023-04-14T04:28:16.589Z,100.00
2023-04-14T04:29:34.456Z,100.00
2023-04-14T04:30:42.105Z,100.00
2023-04-14T04:31:48.634Z,100.00
2023-04-14T04:32:59.653Z,100.00
2023-04-14T04:34:11.363Z,100.00
2023-04-14T04:35:18.367Z,100.00
2023-04-14T04:36:26.863Z,100.00
2023-04-14T04:37:39.963Z,100.00
2023-04-14T04:38:50.147Z,100.00
2023-04-14T04:39:58.468Z,100.00
2023-04-14T04:41:30.525Z,100.00
2023-04-14T04:42:34.855Z,100.00
2023-04-14T04:43:48.808Z,100.00
2023-04-14T04:44:53.691Z,100.00
2023-04-14T04:46:54.785Z,100.00
2023-04-14T04:48:05.459Z,100.00
2023-04-14T04:49:13.729Z,100.00
2023-04-14T04:50:18.960Z,100.00
2023-04-14T04:51:26.482Z,100.00
2023-04-14T04:52:33.224Z,100.00
2023-04-14T04:53:37.251Z,100.00
2023-04-14T04:54:41.002Z,100.00
2023-04-14T04:55:44.965Z,100.00
2023-04-14T04:56:48.511Z,100.00
2023-04-14T04:57:52.413Z,100.00
2023-04-14T04:58:56.433Z,100.00
2023-04-14T04:59:59.913Z,100.00
2023-04-14T05:01:11.501Z,100.00
2023-04-14T05:02:15.602Z,100.00
2023-04-14T05:03:19.442Z,100.00
2023-04-14T05:04:23.191Z,100.00
2023-04-14T05:05:30.538Z,100.00
2023-04-14T05:06:39.762Z,100.00
2023-04-14T05:07:50.413Z,100.00
2023-04-14T05:09:00.667Z,100.00
2023-04-14T05:10:04.839Z,100.00
2023-04-14T05:11:26.523Z,100.00
2023-04-14T05:12:31.742Z,100.00
2023-04-14T05:13:38.489Z,100.00
2023-04-14T05:14:42.369Z,100.00
2023-04-14T05:15:50.804Z,100.00
2023-04-14T05:16:57.122Z,100.00
2023-04-14T05:18:01.856Z,100.00
2023-04-14T05:19:07.314Z,100.00
2023-04-14T05:20:16.112Z,100.00
2023-04-14T05:21:21.050Z,100.00
2023-04-14T05:22:28.537Z,100.00
2023-04-14T05:23:38.361Z,100.00
2023-04-14T05:24:48.952Z,100.00
2023-04-14T05:26:11.257Z,100.00
2023-04-14T05:27:26.305Z,100.00
2023-04-14T05:28:32.128Z,100.00
2023-04-14T05:29:43.874Z,100.00
2023-04-14T05:30:51.441Z,100.00
2023-04-14T05:31:55.926Z,100.00
2023-04-14T05:33:03.023Z,100.00
2023-04-14T05:34:11.145Z,100.00
2023-04-14T05:35:14.808Z,100.00
2023-04-14T05:36:32.630Z,100.00
2023-04-14T05:37:40.006Z,100.00
2023-04-14T05:38:45.630Z,100.00
2023-04-14T05:39:53.507Z,100.00
2023-04-14T05:40:59.575Z,100.00
2023-04-14T05:42:07.988Z,100.00
2023-04-14T05:43:17.872Z,100.00
2023-04-14T05:44:29.299Z,100.00
2023-04-14T05:45:36.947Z,100.00
2023-04-14T05:46:41.391Z,100.00
2023-04-14T05:47:52.179Z,99.81
2023-04-14T05:49:02.016Z,100.00
2023-04-14T05:50:15.677Z,100.00
2023-04-14T05:51:28.471Z,100.00
2023-04-14T05:52:37.696Z,100.00
2023-04-14T05:53:43.752Z,100.00
2023-04-14T05:54:50.819Z,100.00
2023-04-14T05:55:57.918Z,100.00
2023-04-14T05:57:05.392Z,100.00
2023-04-14T05:58:20.022Z,100.00
2023-04-14T05:59:23.680Z,100.00
2023-04-14T06:00:30.454Z,99.48
2023-04-14T06:01:36.371Z,99.00
2023-04-14T06:02:45.342Z,98.92
2023-04-14T06:03:58.911Z,98.39
2023-04-14T06:05:08.168Z,97.97
2023-04-14T06:06:12.782Z,97.67
2023-04-14T06:07:16.495Z,97.23
2023-04-14T06:08:20.994Z,96.97
2023-04-14T06:09:25.262Z,97.13
2023-04-14T06:10:29.509Z,96.90
2023-04-14T06:11:43.369Z,96.42
2023-04-14T06:12:56.610Z,96.41
2023-04-14T06:14:11.988Z,96.64
2023-04-14T06:15:20.709Z,96.49
2023-04-14T06:16:26.942Z,96.04
2023-04-14T06:17:31.212Z,95.98
2023-04-14T06:18:42.942Z,95.69
2023-04-14T06:19:53.977Z,95.09
2023-04-14T06:21:00.057Z,94.98
2023-04-14T06:22:09.331Z,94.91
2023-04-14T06:23:22.088Z,94.32
2023-04-14T06:24:27.723Z,93.46
2023-04-14T06:25:34.125Z,92.84
2023-04-14T06:26:39.942Z,92.11
2023-04-14T06:29:13.186Z,90.44
2023-04-14T06:30:23.397Z,87.72
2023-04-14T06:31:45.352Z,86.94
2023-04-14T06:32:54.364Z,83.88
2023-04-14T06:34:06.362Z,82.05
2023-04-14T06:35:18.996Z,80.50
2023-04-14T06:36:29.489Z,78.90
2023-04-14T06:37:33.165Z,77.46
2023-04-14T06:38:37.872Z,76.50
2023-04-14T06:39:41.520Z,75.75
2023-04-14T06:40:46.682Z,74.26
2023-04-14T06:41:51.623Z,73.82
2023-04-14T06:42:59.666Z,73.14
2023-04-14T06:44:06.286Z,73.22
2023-04-14T06:45:17.449Z,72.25
2023-04-14T06:46:31.017Z,70.78
2023-04-14T06:47:35.684Z,70.95
2023-04-14T06:48:41.205Z,70.37
2023-04-14T06:49:46.600Z,69.69
2023-04-14T06:50:58.236Z,68.71
2023-04-14T06:52:09.855Z,68.91
2023-04-14T06:53:15.538Z,69.16
2023-04-14T06:54:19.396Z,69.55
2023-04-14T06:55:23.450Z,69.63
2023-04-14T06:56:27.193Z,70.13
2023-04-14T06:57:31.143Z,69.77
2023-04-14T06:58:35.036Z,69.88
2023-04-14T06:59:41.566Z,68.79
2023-04-14T07:00:45.499Z,67.83
2023-04-14T07:01:49.131Z,66.90
2023-04-14T07:02:53.287Z,65.86
2023-04-14T07:03:57.039Z,62.99
2023-04-14T07:05:02.729Z,63.16
2023-04-14T07:06:15.590Z,61.94
2023-04-14T07:07:19.423Z,60.30
2023-04-14T07:08:33.744Z,60.88
2023-04-14T07:09:50.078Z,59.31
2023-04-14T07:11:09.406Z,57.51
2023-04-14T07:12:35.508Z,56.76
2023-04-14T07:13:42.245Z,56.59
2023-04-14T07:14:52.242Z,57.65
2023-04-14T07:16:02.444Z,56.75
2023-04-14T07:17:15.543Z,57.96
2023-04-14T07:18:19.164Z,57.71
2023-04-14T07:19:27.470Z,58.22
2023-04-14T07:20:33.202Z,57.96
2023-04-14T07:21:38.553Z,57.97
2023-04-14T07:22:51.984Z,58.11
2023-04-14T07:23:58.754Z,58.48
2023-04-14T07:25:06.731Z,59.21
2023-04-14T07:26:11.968Z,59.19
2023-04-14T07:27:15.943Z,58.89
2023-04-14T07:28:30.167Z,58.35
2023-04-14T07:29:40.712Z,57.63
2023-04-14T07:30:44.639Z,56.99
2023-04-14T07:31:48.613Z,54.48
2023-04-14T07:32:55.059Z,53.82
2023-04-14T07:33:59.281Z,52.74
2023-04-14T07:35:11.162Z,51.95
2023-04-14T07:36:16.941Z,51.00
2023-04-14T07:37:24.979Z,51.24
2023-04-14T07:38:29.962Z,50.52
2023-04-14T07:39:34.161Z,50.17
2023-04-14T07:40:40.211Z,49.09
2023-04-14T07:41:45.353Z,48.74
2023-04-14T07:42:52.154Z,48.74
2023-04-14T07:44:13.431Z,47.58
2023-04-14T07:45:31.591Z,47.18
2023-04-14T07:46:43.055Z,46.71
2023-04-14T07:47:52.327Z,45.19
2023-04-14T07:49:00.395Z,45.09
2023-04-14T07:50:04.880Z,44.17
2023-04-14T07:51:16.074Z,43.99
2023-04-14T07:52:20.046Z,43.59
2023-04-14T07:53:28.202Z,43.46
2023-04-14T07:54:31.950Z,43.19
2023-04-14T07:55:35.628Z,43.67
2023-04-14T07:56:51.022Z,44.22
2023-04-14T07:57:59.620Z,45.02
2023-04-14T07:59:04.001Z,45.70
2023-04-14T08:00:12.328Z,46.34
2023-04-14T08:01:17.092Z,47.06
2023-04-14T08:02:25.369Z,47.22
2023-04-14T08:03:33.068Z,47.75
2023-04-14T08:04:38.834Z,48.30
2023-04-14T08:05:43.994Z,48.49
2023-04-14T08:06:54.701Z,49.08
2023-04-14T08:08:00.735Z,49.86
2023-04-14T08:09:09.299Z,50.42
2023-04-14T08:10:15.889Z,50.85
2023-04-14T08:11:23.665Z,51.04
2023-04-14T08:12:30.936Z,51.50
2023-04-14T08:13:39.962Z,51.90
2023-04-14T08:14:49.254Z,52.21
2023-04-14T08:15:56.143Z,52.66
2023-04-14T08:17:01.335Z,53.57
2023-04-14T08:18:06.866Z,54.44
2023-04-14T08:19:13.565Z,54.42
2023-04-14T08:20:26.155Z,54.06
2023-04-14T08:21:37.216Z,54.94
2023-04-14T08:22:43.332Z,54.38
2023-04-14T08:23:51.561Z,54.38
2023-04-14T08:25:01.325Z,53.95
2023-04-14T08:26:13.777Z,54.54
2023-04-14T08:27:20.341Z,54.62
2023-04-14T08:28:25.303Z,54.94
2023-04-14T08:29:35.171Z,54.93
2023-04-14T08:30:41.976Z,54.95
2023-04-14T08:31:46.666Z,55.59
2023-04-14T08:32:51.154Z,55.53
2023-04-14T08:33:55.880Z,55.52
2023-04-14T08:35:37.655Z,55.34
2023-04-14T08:36:28.917Z,55.19
2023-04-14T08:37:33.974Z,55.54
2023-04-14T08:38:37.511Z,55.54
2023-04-14T08:39:43.958Z,54.99
2023-04-14T08:41:00.380Z,54.89
2023-04-14T08:42:06.246Z,55.26
2023-04-14T08:43:15.271Z,55.14
2023-04-14T08:44:22.841Z,55.38
2023-04-14T08:45:30.932Z,55.37
2023-04-14T08:46:38.147Z,55.26
2023-04-14T08:47:45.988Z,55.10
2023-04-14T08:49:03.511Z,55.07
2023-04-14T08:50:23.942Z,55.07
2023-04-14T08:51:44.095Z,54.35
2023-04-14T08:52:52.764Z,53.19
2023-04-14T08:53:57.685Z,51.70
2023-04-14T08:55:07.022Z,50.09
2023-04-14T08:56:18.186Z,49.97
2023-04-14T08:57:26.380Z,49.58
2023-04-14T08:58:31.005Z,49.33
2023-04-14T08:59:35.466Z,48.75
2023-04-14T09:00:42.549Z,48.89
2023-04-14T09:01:46.624Z,48.83
2023-04-14T09:02:52.189Z,49.01
2023-04-14T09:03:58.161Z,49.42
2023-04-14T09:05:13.814Z,49.97
2023-04-14T09:06:24.634Z,49.63
2023-04-14T09:07:35.235Z,50.12
2023-04-14T09:08:39.470Z,50.27
2023-04-14T09:09:58.241Z,50.36
2023-04-14T09:11:10.286Z,50.65
2023-04-14T09:12:23.255Z,51.03
2023-04-14T09:13:38.764Z,51.19
2023-04-14T09:14:47.675Z,51.54
2023-04-14T09:15:54.633Z,52.29
2023-04-14T09:17:02.893Z,51.89
2023-04-14T09:18:25.768Z,51.50
2023-04-14T09:20:34.682Z,51.66
2023-04-14T09:21:28.779Z,50.88
2023-04-14T09:22:37.476Z,50.64
2023-04-14T09:23:51.773Z,49.90
2023-04-14T09:26:32.717Z,50.09
2023-04-14T09:27:49.293Z,49.43
2023-04-14T09:29:01.248Z,49.11
2023-04-14T09:30:20.326Z,48.66
2023-04-14T09:31:27.165Z,48.37
2023-04-14T09:32:40.105Z,48.27
2023-04-14T09:33:50.918Z,48.08
2023-04-14T09:35:10.717Z,47.88
2023-04-14T09:36:28.246Z,47.32
2023-04-14T09:37:48.310Z,47.29
2023-04-14T09:40:36.692Z,45.93
2023-04-14T09:41:48.151Z,45.55
2023-04-14T09:42:51.718Z,45.41
2023-04-14T09:43:55.726Z,45.56
2023-04-14T09:45:01.343Z,44.38
2023-04-14T09:46:10.135Z,44.52
2023-04-14T09:47:16.638Z,44.49
2023-04-14T09:48:26.864Z,44.69
2023-04-14T09:49:31.895Z,44.26
2023-04-14T09:51:00.073Z,44.36
2023-04-14T09:52:19.015Z,44.55
2023-04-14T09:53:33.835Z,43.86
2023-04-14T09:54:46.956Z,43.56
2023-04-14T09:55:52.296Z,43.53
2023-04-14T09:57:13.024Z,43.08
2023-04-14T09:58:27.310Z,42.45
2023-04-14T09:59:39.003Z,42.01
2023-04-14T10:00:52.681Z,42.20
2023-04-14T10:02:11.711Z,41.93
2023-04-14T10:03:45.572Z,41.62
2023-04-14T10:05:09.728Z,41.41
2023-04-14T10:06:30.207Z,41.85
2023-04-14T10:07:44.342Z,41.75
2023-04-14T10:08:55.144Z,41.80
2023-04-14T10:10:11.629Z,41.53
2023-04-14T10:11:29.731Z,41.46
2023-04-14T10:12:38.639Z,41.75
2023-04-14T10:13:46.978Z,41.96
2023-04-14T10:14:53.333Z,41.69
2023-04-14T10:15:58.580Z,41.62
2023-04-14T10:17:15.626Z,41.78
2023-04-14T10:18:22.985Z,41.86
2023-04-14T10:19:39.802Z,41.91
2023-04-14T10:20:45.652Z,41.99
2023-04-14T10:21:53.511Z,41.77
2023-04-14T10:22:57.728Z,42.17
2023-04-14T10:24:02.423Z,42.13
2023-04-14T10:25:19.394Z,42.27
2023-04-14T10:26:23.902Z,42.19
2023-04-14T10:27:31.795Z,42.26
2023-04-14T10:28:43.119Z,42.22
2023-04-14T10:29:50.655Z,42.13
2023-04-14T10:31:01.955Z,41.77
2023-04-14T10:32:10.222Z,41.64
2023-04-14T10:33:15.658Z,41.56
2023-04-14T10:34:24.966Z,41.67
2023-04-14T10:35:45.957Z,41.74
2023-04-14T10:36:53.484Z,41.59
2023-04-14T10:38:01.622Z,41.65
2023-04-14T10:39:08.424Z,41.20
2023-04-14T10:40:21.626Z,40.85
2023-04-14T10:41:48.238Z,40.44
2023-04-14T10:42:57.800Z,40.00
2023-04-14T10:44:02.685Z,40.21
2023-04-14T10:45:14.249Z,40.35
2023-04-14T10:46:42.205Z,39.94
2023-04-14T10:47:58.675Z,39.45
2023-04-14T10:49:03.595Z,39.34
2023-04-14T10:50:19.617Z,39.46
2023-04-14T10:51:37.019Z,38.90
2023-04-14T10:53:09.302Z,38.56
2023-04-14T10:54:19.625Z,38.26
2023-04-14T10:55:28.450Z,38.20
2023-04-14T10:56:31.945Z,38.51
2023-04-14T10:57:43.849Z,37.95
2023-04-14T10:58:58.928Z,38.19
2023-04-14T11:00:23.468Z,37.82
2023-04-14T11:01:32.846Z,37.20
2023-04-14T11:02:36.691Z,37.50
2023-04-14T11:03:46.396Z,37.32
2023-04-14T11:05:13.245Z,37.18
2023-04-14T11:06:52.033Z,36.58
2023-04-14T11:08:02.373Z,36.68
2023-04-14T11:09:32.498Z,36.85
2023-04-14T11:10:37.009Z,36.97
2023-04-14T11:11:42.795Z,37.09
2023-04-14T11:13:09.523Z,37.39
2023-04-14T11:14:14.286Z,36.91
2023-04-14T11:15:22.927Z,37.20
2023-04-14T11:16:35.841Z,37.40
2023-04-14T11:17:43.875Z,37.64
2023-04-14T11:18:52.405Z,37.53
2023-04-14T11:20:00.652Z,37.86
2023-04-14T11:21:07.941Z,37.72
2023-04-14T11:22:46.349Z,37.97
2023-04-14T11:23:53.406Z,38.02
2023-04-14T11:25:12.966Z,38.38
2023-04-14T11:26:17.222Z,37.75
2023-04-14T11:27:21.027Z,37.29
2023-04-14T11:28:32.549Z,37.30
2023-04-14T11:29:43.062Z,37.40
2023-04-14T11:30:48.820Z,37.01
2023-04-14T11:32:07.843Z,36.76
2023-04-14T11:33:16.814Z,36.74
2023-04-14T11:34:30.739Z,36.69
2023-04-14T11:35:39.076Z,36.51
2023-04-14T11:36:44.222Z,36.54
2023-04-14T11:37:50.158Z,36.33
2023-04-14T11:38:54.534Z,36.55
2023-04-14T11:40:11.029Z,36.46
2023-04-14T11:41:24.037Z,36.78
2023-04-14T11:42:50.489Z,36.44
2023-04-14T11:43:56.776Z,36.40
2023-04-14T11:45:04.232Z,36.27
2023-04-14T11:46:22.473Z,36.18
2023-04-14T11:47:32.924Z,36.52
2023-04-14T11:49:00.315Z,36.40
2023-04-14T11:50:09.099Z,36.42
2023-04-14T11:51:19.513Z,36.65
2023-04-14T11:52:29.324Z,36.53
2023-04-14T11:53:40.823Z,36.80
2023-04-14T11:54:46.877Z,36.74
2023-04-14T11:56:02.284Z,36.78
2023-04-14T11:57:19.004Z,36.97
2023-04-14T11:58:31.961Z,37.20
2023-04-14T11:59:47.278Z,37.36
2023-04-14T12:00:57.764Z,37.45
2023-04-14T12:02:08.072Z,37.45
2023-04-14T12:03:12.080Z,37.49
2023-04-14T12:04:16.807Z,37.52
2023-04-14T12:05:31.505Z,37.59
2023-04-14T12:06:41.971Z,37.70
2023-04-14T12:07:51.358Z,37.69
2023-04-14T12:09:04.495Z,37.88
2023-04-14T12:10:12.715Z,38.00
2023-04-14T12:11:18.445Z,38.17
2023-04-14T12:12:34.883Z,38.18
2023-04-14T12:13:44.302Z,38.18
2023-04-14T12:14:50.603Z,38.33
2023-04-14T12:15:56.123Z,38.32
2023-04-14T12:17:10.603Z,38.57
2023-04-14T12:19:26.340Z,38.69
2023-04-14T12:20:54.840Z,38.80
2023-04-14T12:21:59.750Z,38.75
2023-04-14T12:23:06.023Z,38.73
2023-04-14T12:24:17.569Z,38.09
2023-04-14T12:25:24.263Z,38.13
2023-04-14T12:26:29.371Z,38.08
2023-04-14T12:27:37.087Z,38.17
2023-04-14T12:28:42.229Z,38.29
2023-04-14T12:29:48.334Z,38.36
2023-04-14T12:30:56.753Z,38.25
2023-04-14T12:32:06.330Z,38.20
2023-04-14T12:33:19.088Z,37.80
2023-04-14T12:34:32.504Z,37.91
2023-04-14T12:35:37.859Z,37.63
2023-04-14T12:36:50.203Z,37.98
2023-04-14T12:37:56.921Z,37.62
2023-04-14T12:39:06.679Z,38.11
2023-04-14T12:40:12.509Z,38.27
2023-04-14T12:41:29.931Z,38.10
2023-04-14T12:42:53.172Z,38.13
2023-04-14T12:44:14.429Z,38.30
2023-04-14T12:45:19.866Z,38.22
2023-04-14T12:46:28.571Z,37.93
2023-04-14T12:47:36.856Z,37.94
2023-04-14T12:48:48.811Z,37.69
2023-04-14T12:49:55.143Z,37.70
2023-04-14T12:51:17.527Z,38.03
2023-04-14T12:52:40.986Z,38.58
2023-04-14T12:53:47.806Z,38.96
2023-04-14T12:54:55.160Z,39.56
2023-04-14T12:56:13.316Z,40.26
2023-04-14T12:57:17.036Z,40.32
2023-04-14T12:58:21.487Z,40.35
2023-04-14T12:59:25.070Z,40.23
2023-04-14T13:00:29.145Z,39.94
2023-04-14T13:01:32.900Z,40.25
2023-04-14T13:02:36.709Z,40.08
2023-04-14T13:03:52.935Z,40.21
2023-04-14T13:04:57.843Z,39.99
2023-04-14T13:06:02.077Z,40.05
2023-04-14T13:07:19.283Z,40.22
2023-04-14T13:08:24.799Z,40.28
2023-04-14T13:09:32.152Z,40.19
2023-04-14T13:10:37.624Z,40.34
2023-04-14T13:11:45.048Z,40.29
2023-04-14T13:12:48.885Z,40.58
2023-04-14T13:13:55.071Z,40.77
2023-04-14T13:14:59.069Z,40.81
2023-04-14T13:16:20.602Z,41.02
2023-04-14T13:17:28.888Z,41.30
2023-04-14T13:18:36.265Z,41.52
2023-04-14T13:19:42.342Z,41.73
2023-04-14T13:20:55.624Z,41.59
2023-04-14T13:22:01.543Z,41.75
2023-04-14T13:23:08.763Z,41.86
2023-04-14T13:24:14.805Z,42.02
2023-04-14T13:25:19.142Z,42.20
2023-04-14T13:26:25.754Z,42.24
2023-04-14T13:27:34.785Z,42.36
2023-04-14T13:28:41.705Z,42.30
2023-04-14T13:29:47.576Z,42.63
2023-04-14T13:30:55.908Z,42.68
2023-04-14T13:32:03.180Z,42.58
2023-04-14T13:33:08.846Z,41.94
2023-04-14T13:34:19.684Z,41.04
2023-04-14T13:35:27.930Z,40.57
2023-04-14T13:36:37.135Z,40.70
2023-04-14T13:37:44.687Z,39.90
2023-04-14T13:38:57.701Z,39.82
2023-04-14T13:40:02.214Z,40.06
2023-04-14T13:41:16.569Z,39.45
2023-04-14T13:42:24.143Z,39.21
2023-04-14T13:43:36.859Z,39.04
2023-04-14T13:44:45.512Z,38.92
2023-04-14T13:45:50.041Z,38.92
2023-04-14T13:47:06.391Z,38.86
2023-04-14T13:48:14.012Z,38.92
2023-04-14T13:49:20.029Z,39.18
2023-04-14T13:50:24.077Z,39.62
2023-04-14T13:51:28.906Z,39.85
2023-04-14T13:52:32.753Z,40.26
2023-04-14T13:53:36.603Z,40.61
2023-04-14T13:54:41.179Z,40.86
2023-04-14T13:55:44.873Z,41.29
2023-04-14T13:56:51.191Z,41.66
2023-04-14T13:57:58.049Z,42.72
2023-04-14T13:59:02.282Z,42.80
2023-04-14T14:00:10.255Z,43.49
2023-04-14T14:01:13.930Z,43.66
2023-04-14T14:02:17.583Z,43.55
2023-04-14T14:03:21.561Z,43.59
2023-04-14T14:04:25.837Z,43.56
2023-04-14T14:05:29.810Z,43.78
2023-04-14T14:06:34.213Z,43.73
2023-04-14T14:07:38.841Z,43.25
2023-04-14T14:08:43.117Z,43.57
2023-04-14T14:09:46.842Z,43.59
2023-04-14T14:10:50.626Z,43.42
2023-04-14T14:11:55.149Z,43.72
2023-04-14T14:12:58.946Z,43.75
2023-04-14T14:14:02.998Z,43.61
2023-04-14T14:15:07.925Z,43.79
2023-04-14T14:16:11.713Z,43.18
2023-04-14T14:17:17.853Z,43.25
2023-04-14T14:18:21.796Z,43.33
2023-04-14T14:19:25.398Z,43.26
2023-04-14T14:20:30.407Z,43.09
2023-04-14T14:21:34.525Z,43.03
2023-04-14T14:22:46.005Z,43.13
2023-04-14T14:23:49.767Z,43.29
2023-04-14T14:25:06.936Z,43.55
2023-04-14T14:26:20.731Z,43.29
2023-04-14T14:27:24.845Z,43.50
2023-04-14T14:28:32.146Z,43.59
2023-04-14T14:29:37.425Z,43.38
2023-04-14T14:30:47.740Z,43.72
2023-04-14T14:31:54.840Z,43.69
2023-04-14T14:33:00.360Z,43.65
2023-04-14T14:34:05.534Z,43.62
2023-04-14T14:35:10.613Z,43.43
2023-04-14T14:36:15.385Z,43.44
2023-04-14T14:37:20.237Z,43.24
2023-04-14T14:38:23.836Z,43.59
2023-04-14T14:39:30.303Z,43.80
2023-04-14T14:40:33.940Z,43.93
2023-04-14T14:41:38.012Z,43.82
2023-04-14T14:42:41.672Z,43.77
2023-04-14T14:43:45.520Z,43.78
2023-04-14T14:44:49.079Z,43.41
2023-04-14T14:45:52.688Z,43.62
2023-04-14T14:46:58.846Z,43.89
2023-04-14T14:48:02.540Z,43.76
2023-04-14T14:49:14.686Z,43.46
2023-04-14T14:50:20.698Z,43.89
2023-04-14T14:51:30.557Z,44.11
2023-04-14T14:52:34.719Z,43.70
2023-04-14T14:53:38.456Z,43.69
2023-04-14T14:54:42.359Z,43.85
2023-04-14T14:55:45.762Z,43.84
2023-04-14T14:56:49.204Z,43.79
2023-04-14T14:57:52.972Z,44.16
2023-04-14T14:58:57.447Z,43.81
2023-04-14T15:00:00.965Z,43.61
2023-04-14T15:01:06.075Z,43.51
2023-04-14T15:02:10.632Z,43.40
2023-04-14T15:03:14.634Z,43.20
2023-04-14T15:04:18.729Z,43.00
2023-04-14T15:05:22.307Z,43.18
2023-04-14T15:06:26.136Z,43.08
2023-04-14T15:07:29.729Z,43.00
2023-04-14T15:08:34.514Z,43.00
2023-04-14T15:09:39.319Z,43.36
2023-04-14T15:10:42.950Z,43.28
2023-04-14T15:11:47.714Z,43.38